createdAt,value
2022-12-29T00:00:34.229Z,1.4
2022-12-29T00:02:14.432Z,1.2
2022-12-29T00:03:54.577Z,1.2
2022-12-29T00:05:34.731Z,1.2
2022-12-29T00:07:14.887Z,1.2
2022-12-29T00:08:55.015Z,1.2
2022-12-29T00:10:35.248Z,1.2
2022-12-29T00:12:15.433Z,1.5
2022-12-29T00:13:55.637Z,1.5
2022-12-29T00:15:35.887Z,1.5
2022-12-29T00:17:15.955Z,1.5
2022-12-29T00:18:56.090Z,1.5
2022-12-29T00:20:36.259Z,1.5
2022-12-29T00:22:16.501Z,1.2
2022-12-29T00:23:56.650Z,1.2
2022-12-29T00:25:36.849Z,1.2
2022-12-29T00:27:17.058Z,1.2
2022-12-29T00:28:57.218Z,1.2
2022-12-29T00:30:37.371Z,1.2
2022-12-29T00:32:17.567Z,1.2
2022-12-29T00:33:57.744Z,1.2
2022-12-29T00:35:37.926Z,1.2
2022-12-29T00:37:18.110Z,1.2
2022-12-29T00:38:58.274Z,1.2
2022-12-29T00:40:38.513Z,1.2
2022-12-29T00:42:18.678Z,1
2022-12-29T00:43:58.894Z,1
2022-12-29T00:45:39.148Z,1
2022-12-29T00:47:19.342Z,1
2022-12-29T00:48:59.459Z,1
2022-12-29T00:50:39.681Z,1
2022-12-29T00:52:19.853Z,1.1
2022-12-29T00:54:00.062Z,1.1
2022-12-29T00:55:40.215Z,1.1
2022-12-29T00:57:20.431Z,1.1
2022-12-29T00:59:00.651Z,1.1
2022-12-29T01:00:40.840Z,1.1
2022-12-29T01:02:21.061Z,1.2
2022-12-29T01:04:04.095Z,1.2
2022-12-29T01:05:41.305Z,1.2
2022-12-29T01:07:21.652Z,1.2
2022-12-29T01:09:01.688Z,1.2
2022-12-29T01:10:41.895Z,1.2
2022-12-29T01:12:22.096Z,1.2
2022-12-29T01:14:02.304Z,1.2
2022-12-29T01:15:42.516Z,1.2
2022-12-29T01:17:22.681Z,1.2
2022-12-29T01:19:02.826Z,1.2
2022-12-29T01:20:43.043Z,1.2
2022-12-29T01:22:23.253Z,1.3
2022-12-29T01:24:03.429Z,1.3
2022-12-29T01:25:43.702Z,1.3
2022-12-29T01:27:23.826Z,1.3
2022-12-29T01:29:03.976Z,1.3
2022-12-29T01:30:44.219Z,1.3
2022-12-29T01:32:24.420Z,1.1
2022-12-29T01:34:04.658Z,1.1
2022-12-29T01:35:44.865Z,1.1
2022-12-29T01:37:25.039Z,1.1
2022-12-29T01:39:05.250Z,1.1
2022-12-29T01:40:45.425Z,1.1
2022-12-29T01:44:05.868Z,1
2022-12-29T01:45:46.135Z,1
2022-12-29T01:47:26.221Z,1
2022-12-29T01:49:06.390Z,1
2022-12-29T01:50:46.547Z,1
2022-12-29T01:52:26.810Z,1.5
2022-12-29T01:54:06.954Z,1.5
2022-12-29T01:55:47.159Z,1.5
2022-12-29T01:57:27.406Z,1.5
2022-12-29T01:59:07.572Z,1.5
2022-12-29T02:00:47.798Z,1.5
2022-12-29T02:02:31.254Z,1.1
2022-12-29T02:04:08.078Z,1.1
2022-12-29T02:05:48.241Z,1.1
2022-12-29T02:07:28.456Z,1.1
2022-12-29T02:09:08.653Z,1.1
2022-12-29T02:10:48.859Z,1.1
2022-12-29T02:12:29.031Z,1.1
2022-12-29T02:14:09.204Z,1.1
2022-12-29T02:15:49.380Z,1.1
2022-12-29T02:17:29.561Z,1.1
2022-12-29T02:19:09.804Z,1.1
2022-12-29T02:20:49.921Z,1.1
2022-12-29T02:22:30.151Z,1
2022-12-29T02:24:10.381Z,1
2022-12-29T02:25:50.589Z,1
2022-12-29T02:27:30.750Z,1
2022-12-29T02:29:10.955Z,1
2022-12-29T02:30:51.214Z,1
2022-12-29T02:32:31.359Z,1.7
2022-12-29T02:34:11.563Z,1.7
2022-12-29T02:35:51.731Z,1.7
2022-12-29T02:37:31.905Z,1.7
2022-12-29T02:39:12.097Z,1.7
2022-12-29T02:40:52.304Z,1.7
2022-12-29T02:42:32.500Z,0.9
2022-12-29T02:44:12.672Z,0.9
2022-12-29T02:45:52.983Z,0.9
2022-12-29T02:47:33.074Z,0.9
2022-12-29T02:49:13.295Z,0.9
2022-12-29T02:50:53.513Z,0.9
2022-12-29T02:52:33.677Z,1
2022-12-29T02:54:13.835Z,1
2022-12-29T02:55:54.071Z,1
2022-12-29T02:57:34.273Z,1
2022-12-29T02:59:14.436Z,1
2022-12-29T03:00:54.634Z,1
2022-12-29T03:02:34.903Z,0.9
2022-12-29T03:04:14.973Z,0.9
2022-12-29T03:05:55.123Z,0.9
2022-12-29T03:07:35.331Z,0.9
2022-12-29T03:09:18.417Z,0.9
2022-12-29T03:10:55.675Z,0.9
2022-12-29T03:12:35.907Z,0.7
2022-12-29T03:14:16.112Z,0.7
2022-12-29T03:15:56.249Z,0.7
2022-12-29T03:17:36.463Z,0.7
2022-12-29T03:19:16.677Z,0.7
2022-12-29T03:20:56.821Z,0.7
2022-12-29T03:22:37.091Z,1
2022-12-29T03:24:17.258Z,1
2022-12-29T03:25:57.444Z,1
2022-12-29T03:29:17.857Z,1
2022-12-29T03:30:58.075Z,1
2022-12-29T03:32:38.200Z,1
2022-12-29T03:34:18.408Z,1
2022-12-29T03:35:58.581Z,1
2022-12-29T03:37:38.804Z,1
2022-12-29T03:39:18.997Z,1
2022-12-29T03:40:59.157Z,1
2022-12-29T03:42:39.350Z,0.6
2022-12-29T03:44:19.530Z,0.6
2022-12-29T03:45:59.830Z,0.6
2022-12-29T03:47:39.928Z,0.6
2022-12-29T03:49:20.108Z,0.6
2022-12-29T03:51:00.292Z,0.6
2022-12-29T03:52:40.432Z,0.8
2022-12-29T03:54:20.608Z,0.8
2022-12-29T03:56:00.860Z,0.8
2022-12-29T03:57:40.958Z,0.8
2022-12-29T03:59:21.168Z,0.8
2022-12-29T04:01:01.479Z,0.8
2022-12-29T04:02:41.742Z,0.8
2022-12-29T04:04:21.702Z,0.8
2022-12-29T04:06:01.913Z,0.8
2022-12-29T04:07:42.077Z,0.8
2022-12-29T04:09:22.261Z,0.8
2022-12-29T04:11:02.473Z,0.8
2022-12-29T04:12:42.611Z,0.6
2022-12-29T04:14:22.770Z,0.6
2022-12-29T04:16:03.042Z,0.6
2022-12-29T04:17:43.127Z,0.6
2022-12-29T04:19:23.364Z,0.6
2022-12-29T04:21:03.697Z,0.6
2022-12-29T04:22:43.781Z,0.5
2022-12-29T04:24:23.957Z,0.5
2022-12-29T04:26:04.092Z,0.5
2022-12-29T04:27:44.242Z,0.5
2022-12-29T04:29:24.708Z,0.5
2022-12-29T04:31:04.772Z,0.5
2022-12-29T04:32:44.866Z,0.4
2022-12-29T04:34:25.096Z,0.4
2022-12-29T04:36:05.308Z,0.4
2022-12-29T04:37:45.500Z,0.4
2022-12-29T04:39:25.729Z,0.4
2022-12-29T04:41:05.889Z,0.4
2022-12-29T04:42:46.058Z,0.5
2022-12-29T04:44:26.302Z,0.5
2022-12-29T04:46:06.566Z,0.5
2022-12-29T04:47:46.673Z,0.5
2022-12-29T04:49:26.859Z,0.5
2022-12-29T04:51:07.027Z,0.5
2022-12-29T04:52:47.244Z,0.3
2022-12-29T04:54:27.390Z,0.3
2022-12-29T04:56:07.570Z,0.3
2022-12-29T04:57:47.815Z,0.3
2022-12-29T04:59:27.987Z,0.3
2022-12-29T05:01:08.179Z,0.3
2022-12-29T05:02:48.572Z,0.4
2022-12-29T05:04:28.571Z,0.4
2022-12-29T05:06:08.755Z,0.4
2022-12-29T05:07:48.955Z,0.4
2022-12-29T05:09:29.076Z,0.4
2022-12-29T05:11:09.281Z,0.4
2022-12-29T05:12:49.440Z,0.2
2022-12-29T05:14:29.610Z,0.2
2022-12-29T05:16:09.839Z,0.2
2022-12-29T05:17:49.967Z,0.2
2022-12-29T05:19:30.128Z,0.2
2022-12-29T05:21:10.312Z,0.2
2022-12-29T05:22:50.555Z,0.3
2022-12-29T05:24:30.697Z,0.3
2022-12-29T05:26:10.865Z,0.3
2022-12-29T05:27:51.078Z,0.3
2022-12-29T05:29:31.277Z,0.3
2022-12-29T05:31:11.491Z,0.3
2022-12-29T05:32:51.615Z,0.3
2022-12-29T05:34:31.781Z,0.3
2022-12-29T05:36:11.948Z,0.3
2022-12-29T05:37:52.171Z,0.3
2022-12-29T05:39:32.361Z,0.3
2022-12-29T05:41:12.579Z,0.3
2022-12-29T05:42:52.763Z,0.3
2022-12-29T05:44:32.967Z,0.3
2022-12-29T05:46:13.187Z,0.3
2022-12-29T05:47:53.356Z,0.3
2022-12-29T05:49:33.574Z,0.3
2022-12-29T05:51:13.779Z,0.3
2022-12-29T05:52:53.928Z,0.3
2022-12-29T05:54:34.146Z,0.3
2022-12-29T05:56:14.325Z,0.3
2022-12-29T05:57:54.532Z,0.3
2022-12-29T05:59:34.683Z,0.3
2022-12-29T06:01:14.865Z,0.3
2022-12-29T06:02:55.276Z,0.3
2022-12-29T06:04:35.268Z,0.4
2022-12-29T06:06:15.503Z,0.4
2022-12-29T06:07:55.620Z,0.4
2022-12-29T06:09:35.820Z,0.4
2022-12-29T06:11:16.014Z,0.4
2022-12-29T06:12:56.165Z,0.4
2022-12-29T06:14:36.328Z,0.4
2022-12-29T06:16:16.675Z,0.4
2022-12-29T06:17:56.747Z,0.4
2022-12-29T06:19:36.920Z,0.4
2022-12-29T06:21:17.096Z,0.4
2022-12-29T06:22:57.266Z,0.4
2022-12-29T06:24:37.480Z,0.4
2022-12-29T06:26:17.655Z,0.4
2022-12-29T06:27:57.857Z,0.4
2022-12-29T06:29:38.029Z,0.4
2022-12-29T06:31:18.205Z,0.4
2022-12-29T06:32:58.422Z,0.4
2022-12-29T06:34:38.571Z,0.4
2022-12-29T06:36:18.721Z,0.4
2022-12-29T06:37:58.896Z,0.4
2022-12-29T06:39:39.072Z,0.4
2022-12-29T06:41:19.223Z,0.4
2022-12-29T06:42:59.427Z,0.4
2022-12-29T06:44:39.687Z,0.3
2022-12-29T06:46:20.104Z,0.3
2022-12-29T06:48:00.205Z,0.3
2022-12-29T06:49:40.336Z,0.3
2022-12-29T06:51:20.551Z,0.3
2022-12-29T06:53:00.732Z,0.3
2022-12-29T06:54:40.912Z,0.3
2022-12-29T06:56:21.133Z,0.3
2022-12-29T06:58:01.302Z,0.3
2022-12-29T06:59:41.511Z,0.3
2022-12-29T07:01:21.852Z,0.3
2022-12-29T07:03:02.089Z,0.3
2022-12-29T07:04:41.976Z,0.5
2022-12-29T07:06:22.178Z,0.5
2022-12-29T07:08:02.457Z,0.5
2022-12-29T07:09:42.623Z,0.5
2022-12-29T07:11:22.831Z,0.5
2022-12-29T07:13:03.006Z,0.5
2022-12-29T07:14:43.749Z,0.4
2022-12-29T07:16:23.397Z,0.4
2022-12-29T07:18:03.536Z,0.4
2022-12-29T07:19:43.694Z,0.4
2022-12-29T07:21:23.856Z,0.4
2022-12-29T07:23:04.120Z,0.4
2022-12-29T07:24:44.260Z,0.4
2022-12-29T07:26:24.487Z,0.4
2022-12-29T07:28:04.688Z,0.4
2022-12-29T07:29:44.878Z,0.4
2022-12-29T07:31:25.067Z,0.4
2022-12-29T07:33:05.232Z,0.4
2022-12-29T07:34:45.408Z,0.9
2022-12-29T07:36:30.792Z,0.9
2022-12-29T07:38:05.798Z,0.9
2022-12-29T07:39:46.036Z,0.9
2022-12-29T07:41:26.255Z,0.9
2022-12-29T07:43:06.420Z,0.9
2022-12-29T07:44:46.643Z,0.6
2022-12-29T07:46:53.748Z,0.6
2022-12-29T07:48:07.116Z,0.6
2022-12-29T07:49:47.257Z,0.6
2022-12-29T07:51:27.461Z,0.6
2022-12-29T07:53:07.627Z,0.6
2022-12-29T07:54:47.786Z,0.8
2022-12-29T07:56:27.960Z,0.8
2022-12-29T07:58:08.182Z,0.8
2022-12-29T07:59:48.323Z,0.8
2022-12-29T08:01:28.622Z,0.8
2022-12-29T08:03:08.669Z,0.8
2022-12-29T08:04:48.853Z,0.5
2022-12-29T08:06:29.033Z,0.5
2022-12-29T08:08:09.220Z,0.5
2022-12-29T08:09:49.399Z,0.5
2022-12-29T08:11:29.563Z,0.5
2022-12-29T08:13:09.772Z,0.5
2022-12-29T08:14:49.926Z,0.5
2022-12-29T08:21:31.135Z,0
2022-12-29T08:23:11.375Z,0
2022-12-29T08:24:51.664Z,0
2022-12-29T08:26:31.885Z,0
2022-12-29T08:28:12.043Z,0.5
2022-12-29T08:29:52.290Z,0.5
2022-12-29T08:31:32.460Z,0.5
2022-12-29T08:33:12.620Z,0.5
2022-12-29T08:34:52.815Z,0.5
2022-12-29T08:36:32.984Z,0.5
2022-12-29T08:38:13.188Z,0.3
2022-12-29T08:39:53.344Z,0.3
2022-12-29T08:41:33.545Z,0.3
2022-12-29T08:43:18.504Z,0.3
2022-12-29T08:44:54.012Z,0.3
2022-12-29T08:46:34.341Z,0.3
2022-12-29T08:48:14.416Z,0.6
2022-12-29T08:49:54.605Z,0.6
2022-12-29T08:51:34.829Z,0.6
2022-12-29T08:53:15.028Z,0.6
2022-12-29T08:54:55.202Z,0.6
2022-12-29T08:56:35.467Z,0.6
2022-12-29T08:58:15.802Z,0.9
2022-12-29T08:59:55.810Z,0.9
2022-12-29T09:01:36.096Z,0.9
2022-12-29T09:03:25.871Z,0.9
2022-12-29T09:04:56.472Z,0.9
2022-12-29T09:06:40.502Z,0.9
2022-12-29T09:08:22.320Z,0.3
2022-12-29T09:10:03.055Z,0.3
2022-12-29T09:11:43.458Z,0.3
2022-12-29T09:13:23.829Z,0.3
2022-12-29T09:15:04.168Z,0.3
2022-12-29T09:16:44.619Z,0.3
2022-12-29T09:18:24.906Z,0.3
2022-12-29T09:20:05.263Z,0.3
2022-12-29T09:21:45.662Z,0.3
2022-12-29T09:23:26.022Z,0.3
2022-12-29T09:25:06.427Z,0.3
2022-12-29T09:26:47.276Z,0.3
2022-12-29T09:28:27.192Z,1.6
2022-12-29T09:30:07.554Z,1.6
2022-12-29T09:31:47.983Z,1.6
2022-12-29T09:33:28.326Z,1.6
2022-12-29T09:35:13.593Z,1.6
2022-12-29T09:36:59.837Z,1.6
2022-12-29T09:38:40.204Z,1.9
2022-12-29T09:40:26.179Z,1.9
2022-12-29T09:42:06.517Z,1.9
2022-12-29T09:43:46.944Z,1.9
2022-12-29T09:45:27.295Z,1.9
2022-12-29T09:47:07.705Z,1.9
2022-12-29T09:48:48.043Z,6.5
2022-12-29T09:50:28.734Z,6.5
2022-12-29T09:52:08.836Z,6.5
2022-12-29T09:53:49.276Z,6.5
2022-12-29T09:55:29.655Z,6.5
2022-12-29T09:57:09.989Z,6.5
2022-12-29T09:58:50.357Z,10.3
2022-12-29T10:00:30.793Z,10.3
2022-12-29T10:02:11.307Z,10.3
2022-12-29T10:03:51.420Z,10.3
2022-12-29T10:05:31.750Z,10.3
2022-12-29T10:07:29.019Z,10.3
2022-12-29T10:08:52.449Z,9.4
2022-12-29T10:10:32.833Z,9.4
2022-12-29T10:12:13.235Z,9.4
2022-12-29T10:13:53.602Z,9.4
2022-12-29T10:15:34.008Z,9.4
2022-12-29T10:17:14.376Z,9.4
2022-12-29T10:18:54.742Z,8.1
2022-12-29T10:20:35.117Z,8.1
2022-12-29T10:22:15.463Z,8.1
2022-12-29T10:23:55.788Z,8.1
2022-12-29T10:25:36.099Z,8.1
2022-12-29T10:27:16.506Z,8.1
2022-12-29T10:28:56.908Z,2.3
2022-12-29T10:30:37.219Z,2.3
2022-12-29T10:32:17.590Z,2.3
2022-12-29T10:33:57.994Z,2.3
2022-12-29T10:35:38.401Z,2.3
2022-12-29T10:37:18.747Z,2.3
2022-12-29T10:38:59.099Z,2.8
2022-12-29T10:40:39.379Z,2.8
2022-12-29T10:42:19.687Z,2.8
2022-12-29T10:44:00.038Z,2.8
2022-12-29T10:45:40.385Z,2.8
2022-12-29T10:47:20.662Z,2.8
2022-12-29T10:49:01.042Z,3.5
2022-12-29T10:50:41.284Z,3.5
2022-12-29T10:52:21.630Z,3.5
2022-12-29T10:54:01.968Z,3.5
2022-12-29T10:55:42.267Z,3.5
2022-12-29T10:57:22.611Z,3.5
2022-12-29T10:59:02.888Z,2
2022-12-29T11:00:43.220Z,2
2022-12-29T11:02:23.666Z,2
2022-12-29T11:04:03.828Z,2
2022-12-29T11:05:44.127Z,2
2022-12-29T11:07:27.371Z,2
2022-12-29T11:09:04.807Z,0.7
2022-12-29T11:10:45.098Z,0.7
2022-12-29T11:12:25.361Z,0.7
2022-12-29T11:14:05.687Z,0.7
2022-12-29T11:15:46.045Z,0.7
2022-12-29T11:17:26.390Z,0.7
2022-12-29T11:19:06.687Z,0.6
2022-12-29T11:20:46.992Z,0.6
2022-12-29T11:22:27.319Z,0.6
2022-12-29T11:24:07.649Z,0.6
2022-12-29T11:25:47.962Z,0.6
2022-12-29T11:27:28.274Z,0.6
2022-12-29T11:29:08.568Z,0.6
2022-12-29T11:30:48.880Z,0.5
2022-12-29T11:32:29.570Z,0.5
2022-12-29T11:34:09.520Z,0.5
2022-12-29T11:35:49.841Z,0.5
2022-12-29T11:37:30.193Z,0.5
2022-12-29T11:39:13.976Z,0.5
2022-12-29T11:40:50.915Z,0.6
2022-12-29T11:42:31.273Z,0.6
2022-12-29T11:44:11.675Z,0.6
2022-12-29T11:45:52.171Z,0.6
2022-12-29T11:47:32.468Z,0.6
2022-12-29T11:49:12.746Z,0.6
2022-12-29T11:50:53.073Z,0.3
2022-12-29T11:52:33.373Z,0.3
2022-12-29T11:54:13.633Z,0.3
2022-12-29T11:55:53.980Z,0.3
2022-12-29T11:57:34.265Z,0.3
2022-12-29T11:59:14.582Z,0.3
2022-12-29T12:00:54.873Z,0.6
2022-12-29T12:02:42.040Z,0.6
2022-12-29T12:04:15.529Z,0.6
2022-12-29T12:05:55.752Z,0.6
2022-12-29T12:07:36.081Z,0.6
2022-12-29T12:09:16.400Z,0.6
2022-12-29T12:10:56.680Z,0.6
2022-12-29T12:14:17.281Z,0.6
2022-12-29T12:15:57.735Z,0.6
2022-12-29T12:17:37.867Z,0.6
2022-12-29T12:19:18.178Z,0.6
2022-12-29T12:20:58.442Z,0.4
2022-12-29T12:22:38.760Z,0.4
2022-12-29T12:24:19.168Z,0.4
2022-12-29T12:25:59.358Z,0.4
2022-12-29T12:27:39.683Z,0.4
2022-12-29T12:29:19.972Z,0.4
2022-12-29T12:31:00.360Z,0.8
2022-12-29T12:32:40.599Z,0.8
2022-12-29T12:34:20.888Z,0.8
2022-12-29T12:36:01.190Z,0.8
2022-12-29T12:37:41.480Z,0.8
2022-12-29T12:39:21.778Z,0.8
2022-12-29T12:41:02.102Z,0.7
2022-12-29T12:42:42.373Z,0.7
2022-12-29T12:44:22.670Z,0.7
2022-12-29T12:46:02.985Z,0.7
2022-12-29T12:47:43.271Z,0.7
2022-12-29T12:49:23.529Z,0.7
2022-12-29T12:51:03.867Z,0.5
2022-12-29T12:52:44.178Z,0.5
2022-12-29T12:54:24.420Z,0.5
2022-12-29T12:56:04.727Z,0.5
2022-12-29T12:57:45.034Z,0.5
2022-12-29T12:59:25.304Z,0.5
2022-12-29T13:01:05.642Z,0.7
2022-12-29T13:02:46.083Z,0.7
2022-12-29T13:04:26.205Z,0.7
2022-12-29T13:06:06.474Z,0.7
2022-12-29T13:07:46.783Z,0.7
2022-12-29T13:09:27.070Z,0.7
2022-12-29T13:11:07.368Z,2.1
2022-12-29T13:12:47.636Z,2.1
2022-12-29T13:14:27.978Z,2.1
2022-12-29T13:16:13.798Z,2.1
2022-12-29T13:17:48.539Z,2.1
2022-12-29T13:19:28.857Z,2.1
2022-12-29T13:21:09.132Z,4.6
2022-12-29T13:22:49.396Z,4.6
2022-12-29T13:24:29.701Z,4.6
2022-12-29T13:26:10.017Z,4.6
2022-12-29T13:27:50.304Z,4.6
2022-12-29T13:29:30.575Z,4.6
2022-12-29T13:31:10.929Z,3.1
2022-12-29T13:32:51.164Z,3.1
2022-12-29T13:34:31.466Z,3.1
2022-12-29T13:36:11.792Z,3.1
2022-12-29T13:37:52.114Z,3.1
2022-12-29T13:39:32.359Z,3.1
2022-12-29T13:41:12.681Z,10.1
2022-12-29T13:42:52.929Z,10.1
2022-12-29T13:44:36.709Z,10.1
2022-12-29T13:46:13.588Z,10.1
2022-12-29T13:47:53.862Z,10.1
2022-12-29T13:49:34.108Z,10.1
2022-12-29T13:51:14.482Z,4.8
2022-12-29T13:52:54.836Z,4.8
2022-12-29T13:54:35.071Z,4.8
2022-12-29T13:56:15.382Z,4.8
2022-12-29T13:57:55.706Z,4.8
2022-12-29T13:59:35.977Z,4.8
2022-12-29T14:01:16.485Z,4.8
2022-12-29T14:02:56.859Z,3.5
2022-12-29T14:04:36.861Z,3.5
2022-12-29T14:06:17.126Z,3.5
2022-12-29T14:07:57.474Z,3.5
2022-12-29T14:09:37.739Z,3.5
2022-12-29T14:11:18.020Z,3.5
2022-12-29T14:12:58.317Z,1.3
2022-12-29T14:14:38.627Z,1.3
2022-12-29T14:16:19.006Z,1.3
2022-12-29T14:17:59.212Z,1.3
2022-12-29T14:19:39.512Z,1.3
2022-12-29T14:21:19.907Z,1.3
2022-12-29T14:23:00.115Z,0.9
2022-12-29T14:24:40.407Z,0.9
2022-12-29T14:26:20.755Z,0.9
2022-12-29T14:28:01.149Z,0.9
2022-12-29T14:29:41.600Z,0.9
2022-12-29T14:31:22.026Z,0.9
2022-12-29T14:33:02.295Z,0.9
2022-12-29T14:34:46.348Z,0.9
2022-12-29T14:36:23.060Z,0.9
2022-12-29T14:38:03.391Z,0.9
2022-12-29T14:39:43.811Z,0.9
2022-12-29T14:41:24.235Z,0.9
2022-12-29T14:43:04.660Z,0.9
2022-12-29T14:44:45.112Z,0.9
2022-12-29T14:46:25.530Z,0.9
2022-12-29T14:48:05.872Z,0.9
2022-12-29T14:49:46.257Z,0.9
2022-12-29T14:51:26.609Z,0.9
2022-12-29T14:53:06.991Z,0.9
2022-12-29T14:54:47.439Z,0.9
2022-12-29T14:56:27.837Z,0.9
2022-12-29T14:58:13.683Z,0.9
2022-12-29T14:59:48.602Z,0.9
2022-12-29T15:01:29.121Z,0.9
2022-12-29T15:03:09.478Z,0.8
2022-12-29T15:04:55.259Z,0.8
2022-12-29T15:06:35.592Z,0.8
2022-12-29T15:08:15.952Z,0.8
2022-12-29T15:09:56.383Z,0.8
2022-12-29T15:11:36.747Z,0.8
2022-12-29T15:13:17.188Z,2
2022-12-29T15:14:57.606Z,2
2022-12-29T15:16:38.150Z,2
2022-12-29T15:18:18.265Z,2
2022-12-29T15:19:58.629Z,2
2022-12-29T15:21:38.982Z,2
2022-12-29T15:23:19.331Z,1.8
2022-12-29T15:24:59.765Z,1.8
2022-12-29T15:26:40.086Z,1.8
2022-12-29T15:28:20.379Z,1.8
2022-12-29T15:30:00.691Z,1.8
2022-12-29T15:31:41.031Z,1.8
2022-12-29T15:33:21.367Z,2.6
2022-12-29T15:35:01.818Z,2.6
2022-12-29T15:36:42.173Z,2.6
2022-12-29T15:38:30.384Z,2.6
2022-12-29T15:40:02.946Z,2.6
2022-12-29T15:41:43.339Z,2.6
2022-12-29T15:43:23.686Z,1.9
2022-12-29T15:45:10.937Z,1.9
2022-12-29T15:46:44.453Z,1.9
2022-12-29T15:48:24.823Z,1.9
2022-12-29T15:50:05.213Z,1.9
2022-12-29T15:51:45.463Z,1.9
2022-12-29T15:53:25.859Z,0.7
2022-12-29T15:55:06.279Z,0.7
2022-12-29T15:56:46.610Z,0.7
2022-12-29T15:58:26.967Z,0.7
2022-12-29T16:00:07.235Z,0.7
2022-12-29T16:01:47.911Z,0.7
2022-12-29T16:03:28.117Z,3.6
2022-12-29T16:05:17.643Z,3.6
2022-12-29T16:06:48.521Z,3.6
2022-12-29T16:08:28.843Z,3.6
2022-12-29T16:10:09.168Z,3.6
2022-12-29T16:11:49.457Z,3.6
2022-12-29T16:13:32.265Z,1.5
2022-12-29T16:15:10.179Z,1.5
2022-12-29T16:16:50.480Z,1.5
2022-12-29T16:18:30.749Z,1.5
2022-12-29T16:20:11.041Z,1.5
2022-12-29T16:21:51.400Z,1.5
2022-12-29T16:23:31.740Z,0.4
2022-12-29T16:25:12.049Z,0.4
2022-12-29T16:26:52.365Z,0.4
2022-12-29T16:28:32.670Z,0.4
2022-12-29T16:30:13.000Z,0.4
2022-12-29T16:31:53.381Z,0.4
2022-12-29T16:33:33.614Z,0.7
2022-12-29T16:35:13.931Z,0.7
2022-12-29T16:36:54.238Z,0.7
2022-12-29T16:38:34.561Z,0.7
2022-12-29T16:40:14.886Z,0.7
2022-12-29T16:41:55.196Z,0.7
2022-12-29T16:43:35.568Z,1
2022-12-29T16:45:15.848Z,1
2022-12-29T16:46:56.173Z,1
2022-12-29T16:48:36.564Z,1
2022-12-29T16:50:16.872Z,1
2022-12-29T16:51:57.265Z,1
2022-12-29T16:53:37.638Z,1
2022-12-29T16:55:17.980Z,0.8
2022-12-29T16:56:58.371Z,0.8
2022-12-29T16:58:38.731Z,0.8
2022-12-29T17:00:19.102Z,0.8
2022-12-29T17:01:59.583Z,0.8
2022-12-29T17:03:39.999Z,1.7
2022-12-29T17:05:20.277Z,1.7
2022-12-29T17:07:00.660Z,1.7
2022-12-29T17:08:41.078Z,1.7
2022-12-29T17:10:21.419Z,1.7
2022-12-29T17:12:10.404Z,1.7
2022-12-29T17:13:42.182Z,1.7
2022-12-29T17:15:22.548Z,1.1
2022-12-29T17:17:02.848Z,1.1
2022-12-29T17:18:43.181Z,1.1
2022-12-29T17:20:23.462Z,1.1
2022-12-29T17:22:03.793Z,1.1
2022-12-29T17:23:44.114Z,1.1
2022-12-29T17:25:24.454Z,0.6
2022-12-29T17:27:04.768Z,0.6
2022-12-29T17:28:45.071Z,0.6
2022-12-29T17:30:31.186Z,0.6
2022-12-29T17:32:05.742Z,0.6
2022-12-29T17:33:46.060Z,0.6
2022-12-29T17:35:26.378Z,1.9
2022-12-29T17:37:06.687Z,1.9
2022-12-29T17:38:47.000Z,1.9
2022-12-29T17:40:27.349Z,1.9
2022-12-29T17:42:07.612Z,1.9
2022-12-29T17:43:47.959Z,1.9
2022-12-29T17:45:28.205Z,1
2022-12-29T17:47:08.510Z,1
2022-12-29T17:48:53.502Z,1
2022-12-29T17:50:29.121Z,1
2022-12-29T17:52:09.361Z,1
2022-12-29T17:53:49.666Z,1
2022-12-29T17:55:36.660Z,0.9
2022-12-29T17:57:10.257Z,0.9
2022-12-29T17:58:50.590Z,0.9
2022-12-29T18:00:30.896Z,0.9
2022-12-29T18:02:11.240Z,0.9
2022-12-29T18:03:51.514Z,0.9
2022-12-29T18:05:31.763Z,1.6
2022-12-29T18:07:12.063Z,1.6
2022-12-29T18:08:52.360Z,1.6
2022-12-29T18:10:32.669Z,1.6
2022-12-29T18:12:12.948Z,1.6
2022-12-29T18:13:53.234Z,1.6
2022-12-29T18:15:33.544Z,0.8
2022-12-29T18:17:13.896Z,0.8
2022-12-29T18:18:54.160Z,0.8
2022-12-29T18:20:34.415Z,0.8
2022-12-29T18:22:14.725Z,0.8
2022-12-29T18:23:54.992Z,0.8
2022-12-29T18:25:35.296Z,0.5
2022-12-29T18:27:15.786Z,0.5
2022-12-29T18:28:55.884Z,0.5
2022-12-29T18:30:36.170Z,0.5
2022-12-29T18:32:16.496Z,0.5
2022-12-29T18:33:56.784Z,0.5
2022-12-29T18:35:37.987Z,2.9
2022-12-29T18:35:37.997Z,2.9
2022-12-29T18:37:17.535Z,2.9
2022-12-29T18:38:57.898Z,2.9
2022-12-29T18:40:38.181Z,2.9
2022-12-29T18:42:18.632Z,2.9
2022-12-29T18:43:58.969Z,2.9
2022-12-29T18:45:39.352Z,7.2
2022-12-29T18:47:19.750Z,7.2
2022-12-29T18:49:00.062Z,7.2
2022-12-29T18:50:40.465Z,7.2
2022-12-29T18:52:20.860Z,7.2
2022-12-29T18:54:01.232Z,7.2
2022-12-29T18:55:41.639Z,10.1
2022-12-29T18:57:21.998Z,10.1
2022-12-29T18:59:02.331Z,10.1
2022-12-29T19:00:42.654Z,10.1
2022-12-29T19:02:23.040Z,10.1
2022-12-29T19:04:03.251Z,10.1
2022-12-29T19:05:43.583Z,2.7
2022-12-29T19:07:23.926Z,2.7
2022-12-29T19:09:04.222Z,2.7
2022-12-29T19:10:44.551Z,2.7
2022-12-29T19:12:28.284Z,2.7
2022-12-29T19:14:05.162Z,2.7
2022-12-29T19:15:45.537Z,1.3
2022-12-29T19:17:25.834Z,1.3
2022-12-29T19:19:09.974Z,1.3
2022-12-29T19:20:46.435Z,1.3
2022-12-29T19:22:26.772Z,1.3
2022-12-29T19:24:07.154Z,1.3
2022-12-29T19:25:47.468Z,1.1
2022-12-29T19:27:27.755Z,1.1
2022-12-29T19:29:08.063Z,1.1
2022-12-29T19:30:52.238Z,1.1
2022-12-29T19:32:28.685Z,1.1
2022-12-29T19:34:09.005Z,1.1
2022-12-29T19:35:49.342Z,1.2
2022-12-29T19:37:29.631Z,1.2
2022-12-29T19:39:09.975Z,1.2
2022-12-29T19:40:50.359Z,1.2
2022-12-29T19:42:30.574Z,1.2
2022-12-29T19:44:10.857Z,1.2
2022-12-29T19:45:51.126Z,1.2
2022-12-29T19:47:32.094Z,1.6
2022-12-29T19:49:11.746Z,1.6
2022-12-29T19:50:51.989Z,1.6
2022-12-29T19:52:32.306Z,1.6
2022-12-29T19:54:12.567Z,1.6
2022-12-29T19:55:52.885Z,1.6
2022-12-29T19:57:33.168Z,2.4
2022-12-29T19:59:13.472Z,2.4
2022-12-29T20:00:53.805Z,2.4
2022-12-29T20:02:34.249Z,2.4
2022-12-29T20:04:14.368Z,2.4
2022-12-29T20:05:54.667Z,2.4
2022-12-29T20:07:34.962Z,2.4
2022-12-29T20:09:15.290Z,2.4
2022-12-29T20:10:55.593Z,2.4
2022-12-29T20:12:35.852Z,2.4
2022-12-29T20:14:16.160Z,2.4
2022-12-29T20:15:56.590Z,2.4
2022-12-29T20:18:11.764Z,1.6
2022-12-29T20:19:17.081Z,1.6
2022-12-29T20:20:57.347Z,1.6
2022-12-29T20:22:37.702Z,1.6
2022-12-29T20:24:18.124Z,1.6
2022-12-29T20:25:58.420Z,1.6
2022-12-29T20:27:38.816Z,2.4
2022-12-29T20:29:19.257Z,2.4
2022-12-29T20:30:59.599Z,2.4
2022-12-29T20:32:39.974Z,2.4
2022-12-29T20:34:20.356Z,2.4
2022-12-29T20:36:00.687Z,2.4
2022-12-29T20:37:41.011Z,0.9
2022-12-29T20:39:21.388Z,0.9
2022-12-29T20:41:01.621Z,0.9
2022-12-29T20:42:41.941Z,0.9
2022-12-29T20:44:22.276Z,0.9
2022-12-29T20:46:02.638Z,0.9
2022-12-29T20:47:42.919Z,0.8
2022-12-29T20:49:23.199Z,0.8
2022-12-29T20:51:03.487Z,0.8
2022-12-29T20:52:43.822Z,0.8
2022-12-29T20:54:24.161Z,0.8
2022-12-29T20:56:04.484Z,0.8
2022-12-29T20:58:21.998Z,4.8
2022-12-29T20:59:27.685Z,4.8
2022-12-29T21:01:05.492Z,4.8
2022-12-29T21:02:45.831Z,4.8
2022-12-29T21:04:26.044Z,4.8
2022-12-29T21:06:06.360Z,4.8
2022-12-29T21:07:46.668Z,1.5
2022-12-29T21:09:26.987Z,1.5
2022-12-29T21:11:07.305Z,1.5
2022-12-29T21:12:47.608Z,1.5
2022-12-29T21:14:27.929Z,1.5
2022-12-29T21:16:08.242Z,1.5
2022-12-29T21:17:48.543Z,0.9
2022-12-29T21:19:28.912Z,0.9
2022-12-29T21:21:09.217Z,0.9
2022-12-29T21:22:49.575Z,0.9
2022-12-29T21:24:29.961Z,0.9
2022-12-29T21:26:10.285Z,0.9
2022-12-29T21:27:50.660Z,1.3
2022-12-29T21:29:31.060Z,1.3
2022-12-29T21:31:11.542Z,1.3
2022-12-29T21:32:51.883Z,1.3
2022-12-29T21:34:32.199Z,1.3
2022-12-29T21:36:12.614Z,1.3
2022-12-29T21:37:52.997Z,0.9
2022-12-29T21:39:33.277Z,0.9
2022-12-29T21:41:13.554Z,0.9
2022-12-29T21:42:53.876Z,0.9
2022-12-29T21:44:34.150Z,0.9
2022-12-29T21:46:14.510Z,0.9
2022-12-29T21:47:54.772Z,1.2
2022-12-29T21:49:35.053Z,1.2
2022-12-29T21:51:15.359Z,1.2
2022-12-29T21:52:55.655Z,1.2
2022-12-29T21:54:35.979Z,1.2
2022-12-29T21:56:16.211Z,1.2
2022-12-29T21:57:56.522Z,1.4
2022-12-29T21:59:36.826Z,1.4
2022-12-29T22:01:17.165Z,1.4
2022-12-29T22:02:57.542Z,1.4
2022-12-29T22:04:37.692Z,1.4
2022-12-29T22:06:17.979Z,1.4
2022-12-29T22:07:58.296Z,1.2
2022-12-29T22:09:43.335Z,1.2
2022-12-29T22:11:18.877Z,1.2
2022-12-29T22:12:59.208Z,1.2
2022-12-29T22:14:39.464Z,1.2
2022-12-29T22:16:19.793Z,1.2
2022-12-29T22:18:00.123Z,1.4
2022-12-29T22:19:40.362Z,1.4
2022-12-29T22:21:20.663Z,1.4
2022-12-29T22:23:00.931Z,1.4
2022-12-29T22:24:41.251Z,1.4
2022-12-29T22:26:21.606Z,1.4
2022-12-29T22:28:01.890Z,1
2022-12-29T22:29:42.152Z,1
2022-12-29T22:31:22.523Z,1
2022-12-29T22:33:02.796Z,1
2022-12-29T22:34:43.077Z,1
2022-12-29T22:36:23.350Z,1
2022-12-29T22:38:03.692Z,1.3
2022-12-29T22:39:43.971Z,1.3
2022-12-29T22:41:24.260Z,1.3
2022-12-29T22:43:09.435Z,1.3
2022-12-29T22:44:44.896Z,1.3
2022-12-29T22:46:25.251Z,1.3
2022-12-29T22:48:05.561Z,1.4
2022-12-29T22:49:45.783Z,1.4
2022-12-29T22:51:26.111Z,1.4
2022-12-29T22:53:06.388Z,1.4
2022-12-29T22:54:46.718Z,1.4
2022-12-29T22:56:27.022Z,1.4
2022-12-29T22:58:07.314Z,1.6
2022-12-29T22:59:47.615Z,1.6
2022-12-29T23:01:28.003Z,0
2022-12-29T23:03:08.457Z,0
2022-12-29T23:05:05.024Z,0
2022-12-29T23:06:28.774Z,0
2022-12-29T23:08:09.062Z,0
2022-12-29T23:09:49.388Z,0
2022-12-29T23:11:29.660Z,1.7
2022-12-29T23:13:09.979Z,1.7
2022-12-29T23:14:50.245Z,1.7
2022-12-29T23:16:30.677Z,1.7